Time;durP1;ratioP1;P1;durP2;ratioP2;P2;SDS_P1;SDS_P2;PMS_P1;PMS_P2;Temp;Humidity;BMP_temperature;BMP_pressure;BME280_temperature;BME280_humidity;BME280_pressure;Samples;Min_cycle;Max_cycle;Signal;HPM_P1;HPM_P2
2024/01/17 00:01:48;;;;;;;8.60;4.82;;;;;;;;;;4995937;28;20076;-67
2024/01/17 00:04:15;;;;;;;10.68;4.68;;;;;;;;;;4994480;28;20046;-67
2024/01/17 00:06:40;;;;;;;13.48;6.57;;;;;;;;;;4996814;28;21095;-67
2024/01/17 00:09:05;;;;;;;4.80;4.13;;;;;;;;;;4996925;28;20046;-67
2024/01/17 00:11:31;;;;;;;3.35;3.03;;;;;;;;;;4996598;28;20066;-68
2024/01/17 00:13:56;;;;;;;6.85;4.43;;;;;;;;;;4996694;28;20049;-67
2024/01/17 00:16:22;;;;;;;7.93;6.30;;;;;;;;;;4994508;28;20057;-68
2024/01/17 00:18:48;;;;;;;5.05;4.40;;;;;;;;;;4996344;28;20100;-68
2024/01/17 00:21:14;;;;;;;11.90;4.00;;;;;;;;;;4995575;28;20135;-67
2024/01/17 00:23:39;;;;;;;10.18;6.68;;;;;;;;;;4996570;28;20136;-68
2024/01/17 00:26:05;;;;;;;9.07;6.35;;;;;;;;;;4995037;28;20056;-68
2024/01/17 00:28:31;;;;;;;8.40;5.00;;;;;;;;;;4995105;28;20037;-68
2024/01/17 00:30:57;;;;;;;6.45;3.85;;;;;;;;;;4995765;28;20057;-67
2024/01/17 00:33:22;;;;;;;11.63;5.38;;;;;;;;;;4995680;28;20103;-67
2024/01/17 00:35:48;;;;;;;9.13;5.07;;;;;;;;;;4996296;28;20609;-68
2024/01/17 00:38:13;;;;;;;8.38;4.82;;;;;;;;;;4994425;28;20050;-68
2024/01/17 00:40:39;;;;;;;6.75;4.30;;;;;;;;;;4996496;28;20056;-67
2024/01/17 00:43:05;;;;;;;11.13;5.47;;;;;;;;;;4995924;28;20112;-68
2024/01/17 00:45:30;;;;;;;6.32;4.82;;;;;;;;;;4995495;28;20149;-68
2024/01/17 00:47:56;;;;;;;3.33;2.88;;;;;;;;;;4996003;28;20072;-68
2024/01/17 00:50:22;;;;;;;5.55;4.65;;;;;;;;;;4994687;28;20078;-67
2024/01/17 00:52:48;;;;;;;11.52;4.88;;;;;;;;;;4981311;28;20096;-68
2024/01/17 00:55:13;;;;;;;5.90;4.05;;;;;;;;;;4977563;28;20136;-68
2024/01/17 00:57:39;;;;;;;5.75;3.92;;;;;;;;;;4996559;28;20053;-68
2024/01/17 01:00:05;;;;;;;4.90;4.28;;;;;;;;;;4975774;28;20038;-68
2024/01/17 01:02:30;;;;;;;10.52;4.88;;;;;;;;;;4994714;28;21118;-68
2024/01/17 01:04:56;;;;;;;11.50;4.43;;;;;;;;;;4996446;28;20046;-68
2024/01/17 01:07:21;;;;;;;7.07;4.88;;;;;;;;;;4995465;28;20042;-68
2024/01/17 01:09:47;;;;;;;8.23;5.45;;;;;;;;;;4995602;28;20522;-68
2024/01/17 01:12:12;;;;;;;6.85;4.15;;;;;;;;;;4975828;28;20785;-68
2024/01/17 01:14:37;;;;;;;6.30;4.32;;;;;;;;;;4996966;28;20058;-68
2024/01/17 01:17:03;;;;;;;11.55;5.18;;;;;;;;;;4980766;28;20046;-68
2024/01/17 01:19:28;;;;;;;3.63;3.13;;;;;;;;;;4997120;28;20046;-68
2024/01/17 01:21:54;;;;;;;6.60;4.70;;;;;;;;;;4998589;28;20058;-68
2024/01/17 01:24:19;;;;;;;8.20;4.30;;;;;;;;;;4996646;28;20065;-68
2024/01/17 01:26:45;;;;;;;5.28;4.07;;;;;;;;;;4998528;28;20053;-68
2024/01/17 01:29:10;;;;;;;5.80;4.32;;;;;;;;;;4998703;28;20160;-68
2024/01/17 01:31:35;;;;;;;4.43;3.78;;;;;;;;;;4999015;28;20507;-68
2024/01/17 01:34:01;;;;;;;9.30;4.45;;;;;;;;;;4998916;28;20050;-69
2024/01/17 01:36:26;;;;;;;8.60;4.85;;;;;;;;;;4998801;28;20056;-68
2024/01/17 01:38:52;;;;;;;6.38;5.13;;;;;;;;;;4998527;28;20470;-68
2024/01/17 01:41:17;;;;;;;6.60;4.60;;;;;;;;;;4998358;28;20049;-68
2024/01/17 01:43:43;;;;;;;5.55;4.32;;;;;;;;;;4982031;28;20050;-68
2024/01/17 01:46:20;;;;;;;6.20;4.43;;;;;;;;;;4998075;28;20049;-68
2024/01/17 01:48:48;;;;;;;4.80;3.33;;;;;;;;;;4997848;28;20050;-68
2024/01/17 01:51:14;;;;;;;7.25;4.93;;;;;;;;;;4998187;28;20100;-68
2024/01/17 01:53:42;;;;;;;9.50;5.15;;;;;;;;;;4998515;28;20060;-67
2024/01/17 01:56:09;;;;;;;5.47;4.25;;;;;;;;;;4998449;28;21077;-67
2024/01/17 01:58:35;;;;;;;10.52;5.05;;;;;;;;;;4998074;28;20949;-67
2024/01/17 02:01:02;;;;;;;8.20;4.65;;;;;;;;;;4997861;28;20432;-67
2024/01/17 02:03:29;;;;;;;7.97;5.43;;;;;;;;;;4998390;28;20107;-68
2024/01/17 02:05:54;;;;;;;14.27;5.18;;;;;;;;;;4998678;28;20655;-68
2024/01/17 02:08:20;;;;;;;15.10;5.80;;;;;;;;;;4997368;28;20069;-67
2024/01/17 02:10:45;;;;;;;6.43;4.18;;;;;;;;;;4981029;28;20053;-67
2024/01/17 02:13:11;;;;;;;5.38;3.97;;;;;;;;;;4999378;28;20042;-67
2024/01/17 02:15:36;;;;;;;10.40;5.30;;;;;;;;;;4998207;28;20930;-67
2024/01/17 02:18:03;;;;;;;5.72;4.03;;;;;;;;;;4998216;28;20068;-67
2024/01/17 02:20:29;;;;;;;8.27;5.30;;;;;;;;;;4997837;28;20061;-67
2024/01/17 02:22:54;;;;;;;6.93;4.13;;;;;;;;;;4997741;28;20042;-67
2024/01/17 02:25:19;;;;;;;5.72;4.90;;;;;;;;;;4997128;28;20161;-68
2024/01/17 02:27:45;;;;;;;7.28;4.90;;;;;;;;;;4998076;28;20108;-68
2024/01/17 02:30:14;;;;;;;9.23;5.15;;;;;;;;;;4997233;28;20109;-68
2024/01/17 02:32:40;;;;;;;9.10;5.50;;;;;;;;;;4996642;28;20046;-67
2024/01/17 02:35:05;;;;;;;7.00;4.72;;;;;;;;;;4998523;28;20108;-68
2024/01/17 02:37:31;;;;;;;8.43;6.22;;;;;;;;;;4997511;28;20049;-68
2024/01/17 02:39:56;;;;;;;8.88;5.75;;;;;;;;;;4998246;28;20441;-68
2024/01/17 02:42:22;;;;;;;7.07;5.00;;;;;;;;;;4996426;28;20050;-67
2024/01/17 02:44:47;;;;;;;9.75;5.93;;;;;;;;;;4997335;28;20056;-68
2024/01/17 02:47:13;;;;;;;14.60;7.15;;;;;;;;;;4997896;28;20141;-68
2024/01/17 02:49:38;;;;;;;15.18;6.35;;;;;;;;;;4997198;28;20045;-68
2024/01/17 02:52:05;;;;;;;11.25;6.38;;;;;;;;;;4997271;28;20474;-68
2024/01/17 02:54:31;;;;;;;8.23;5.57;;;;;;;;;;4996046;28;20045;-68
2024/01/17 02:56:56;;;;;;;7.05;6.00;;;;;;;;;;4980271;28;20399;-67
2024/01/17 02:59:22;;;;;;;8.90;6.75;;;;;;;;;;4996403;28;20050;-68
2024/01/17 03:01:48;;;;;;;11.65;5.32;;;;;;;;;;4997250;28;20057;-67
2024/01/17 03:04:13;;;;;;;9.27;5.82;;;;;;;;;;4997142;28;20503;-68
2024/01/17 03:06:39;;;;;;;7.97;5.78;;;;;;;;;;4996223;28;20129;-68
2024/01/17 03:09:04;;;;;;;10.55;7.10;;;;;;;;;;4997389;28;20041;-67
2024/01/17 03:11:30;;;;;;;7.30;5.35;;;;;;;;;;4996865;28;20115;-67
2024/01/17 03:13:56;;;;;;;11.57;7.47;;;;;;;;;;4997889;28;20631;-67
2024/01/17 03:16:21;;;;;;;14.57;6.88;;;;;;;;;;4995870;28;20053;-67
2024/01/17 03:18:47;;;;;;;10.25;6.65;;;;;;;;;;4997589;28;20077;-66
2024/01/17 03:21:16;;;;;;;7.18;5.63;;;;;;;;;;4998007;28;20046;-67
2024/01/17 03:23:41;;;;;;;11.85;7.13;;;;;;;;;;4997447;28;20042;-67
2024/01/17 03:26:06;;;;;;;10.40;7.07;;;;;;;;;;4996911;28;20736;-67
2024/01/17 03:28:32;;;;;;;9.95;5.97;;;;;;;;;;4978802;28;20049;-67
2024/01/17 03:30:57;;;;;;;11.00;7.05;;;;;;;;;;4997169;28;20053;-66
2024/01/17 03:33:23;;;;;;;8.88;7.28;;;;;;;;;;4996687;28;20688;-67
2024/01/17 03:35:48;;;;;;;11.55;6.63;;;;;;;;;;4996885;28;20050;-67
2024/01/17 03:38:14;;;;;;;7.57;6.25;;;;;;;;;;4995148;28;20434;-68
2024/01/17 03:40:39;;;;;;;9.45;6.07;;;;;;;;;;4995949;28;20056;-68
2024/01/17 03:43:05;;;;;;;9.40;6.60;;;;;;;;;;4996476;28;20046;-68
2024/01/17 03:45:30;;;;;;;8.43;5.97;;;;;;;;;;4964800;28;20049;-68
2024/01/17 03:47:55;;;;;;;9.38;6.22;;;;;;;;;;4980986;28;20853;-68
2024/01/17 03:50:21;;;;;;;8.35;6.18;;;;;;;;;;4993415;28;20049;-68
2024/01/17 03:52:47;;;;;;;8.13;6.22;;;;;;;;;;4996535;28;20056;-67
2024/01/17 03:55:13;;;;;;;10.18;6.18;;;;;;;;;;4996881;28;20779;-67
2024/01/17 03:57:38;;;;;;;7.97;5.90;;;;;;;;;;4981599;28;20125;-68
2024/01/17 04:00:04;;;;;;;7.22;5.50;;;;;;;;;;4996596;28;20454;-67
2024/01/17 04:02:30;;;;;;;10.05;6.53;;;;;;;;;;4995443;28;20066;-68
2024/01/17 04:04:55;;;;;;;7.93;6.25;;;;;;;;;;4996895;28;20148;-67
2024/01/17 04:07:22;;;;;;;10.60;5.35;;;;;;;;;;4997024;28;20046;-67
2024/01/17 04:09:47;;;;;;;7.88;5.28;;;;;;;;;;4995800;28;20616;-68
2024/01/17 04:12:13;;;;;;;10.23;6.32;;;;;;;;;;4995635;28;20052;-68
2024/01/17 04:14:39;;;;;;;7.22;5.68;;;;;;;;;;4995054;28;20064;-67
2024/01/17 04:17:04;;;;;;;9.13;6.35;;;;;;;;;;4980390;28;20053;-68
2024/01/17 04:19:29;;;;;;;8.23;5.55;;;;;;;;;;4996584;28;20046;-67
2024/01/17 04:21:58;;;;;;;8.00;5.05;;;;;;;;;;4996900;28;20734;-67
2024/01/17 04:24:24;;;;;;;8.40;5.38;;;;;;;;;;4995567;28;20080;-67
2024/01/17 04:26:49;;;;;;;13.40;5.65;;;;;;;;;;4996565;28;20041;-66
2024/01/17 04:29:17;;;;;;;8.07;5.25;;;;;;;;;;4997038;28;20141;-66
2024/01/17 04:31:42;;;;;;;7.07;4.80;;;;;;;;;;4960127;28;20157;-66
2024/01/17 04:34:07;;;;;;;6.95;5.13;;;;;;;;;;4961040;28;20091;-66
2024/01/17 04:36:33;;;;;;;5.18;4.07;;;;;;;;;;4995464;28;20046;-66
2024/01/17 04:39:00;;;;;;;5.97;4.57;;;;;;;;;;4996255;28;20177;-66
2024/01/17 04:41:25;;;;;;;5.80;3.47;;;;;;;;;;4996269;28;20042;-66
2024/01/17 04:43:51;;;;;;;8.23;5.45;;;;;;;;;;4995631;28;20049;-66
2024/01/17 04:46:17;;;;;;;6.70;5.18;;;;;;;;;;4984728;28;20499;-67
2024/01/17 04:48:43;;;;;;;8.63;5.78;;;;;;;;;;4996401;28;20049;-67
2024/01/17 04:51:10;;;;;;;5.47;3.83;;;;;;;;;;4998910;28;20099;-67
2024/01/17 04:53:37;;;;;;;7.60;5.20;;;;;;;;;;4998080;28;20041;-67
2024/01/17 04:56:05;;;;;;;8.65;5.53;;;;;;;;;;4997901;28;20061;-72
2024/01/17 04:58:34;;;;;;;11.07;5.20;;;;;;;;;;4999020;28;20387;-68
2024/01/17 05:00:59;;;;;;;8.73;5.75;;;;;;;;;;4999562;28;20594;-68
2024/01/17 05:03:25;;;;;;;7.60;3.78;;;;;;;;;;4999649;28;20042;-68
2024/01/17 05:05:51;;;;;;;6.18;4.25;;;;;;;;;;4982047;28;20042;-68
2024/01/17 05:08:16;;;;;;;6.25;4.93;;;;;;;;;;4979455;28;20051;-68
2024/01/17 05:10:45;;;;;;;4.28;2.85;;;;;;;;;;4979849;28;20614;-68
2024/01/17 05:13:12;;;;;;;6.63;4.47;;;;;;;;;;4997544;28;20128;-68
2024/01/17 05:15:39;;;;;;;5.15;4.30;;;;;;;;;;4985900;28;20100;-68
2024/01/17 05:18:05;;;;;;;7.22;4.32;;;;;;;;;;4980122;28;20085;-69
2024/01/17 05:20:32;;;;;;;10.30;4.95;;;;;;;;;;4997107;28;20143;-68
2024/01/17 05:22:57;;;;;;;8.55;5.43;;;;;;;;;;4980804;28;20041;-70
2024/01/17 05:25:22;;;;;;;5.70;4.45;;;;;;;;;;4998842;28;20479;-69
2024/01/17 05:27:51;;;;;;;5.50;4.10;;;;;;;;;;4981137;28;20050;-69
2024/01/17 05:30:18;;;;;;;7.47;4.63;;;;;;;;;;4995614;28;20050;-69
2024/01/17 05:32:44;;;;;;;7.60;5.15;;;;;;;;;;4996411;28;20495;-69
2024/01/17 05:35:09;;;;;;;4.65;3.80;;;;;;;;;;4996538;28;20056;-69
2024/01/17 05:37:38;;;;;;;4.75;3.95;;;;;;;;;;4996159;28;20050;-69
2024/01/17 05:40:04;;;;;;;6.05;4.60;;;;;;;;;;4997353;28;20043;-69
2024/01/17 05:42:30;;;;;;;7.70;4.70;;;;;;;;;;4997476;28;20495;-69
2024/01/17 05:44:55;;;;;;;10.20;4.97;;;;;;;;;;4997453;28;20050;-69
2024/01/17 05:47:21;;;;;;;6.25;4.53;;;;;;;;;;4998338;28;20049;-67
2024/01/17 05:49:46;;;;;;;6.65;5.10;;;;;;;;;;4980444;28;20050;-69
2024/01/17 05:52:12;;;;;;;7.22;4.93;;;;;;;;;;4996792;28;20072;-68
2024/01/17 05:54:37;;;;;;;6.10;4.38;;;;;;;;;;4995994;28;20057;-68
2024/01/17 05:57:03;;;;;;;8.90;5.32;;;;;;;;;;4997878;28;20188;-70
2024/01/17 05:59:28;;;;;;;5.47;4.45;;;;;;;;;;4997122;28;20043;-70
2024/01/17 06:01:53;;;;;;;6.75;4.57;;;;;;;;;;4978755;28;20065;-67
2024/01/17 06:04:19;;;;;;;6.68;4.80;;;;;;;;;;4995945;28;20034;-72
2024/01/17 06:06:44;;;;;;;6.35;5.00;;;;;;;;;;4995161;28;20899;-71
2024/01/17 06:09:10;;;;;;;6.50;5.30;;;;;;;;;;4997730;28;20073;-69
2024/01/17 06:11:35;;;;;;;5.45;4.75;;;;;;;;;;4996978;28;20491;-70
2024/01/17 06:14:01;;;;;;;6.97;4.90;;;;;;;;;;4992667;28;20099;-68
2024/01/17 06:16:26;;;;;;;5.88;4.53;;;;;;;;;;4995920;28;20944;-69
2024/01/17 06:18:52;;;;;;;6.40;4.72;;;;;;;;;;4982062;28;20050;-70
2024/01/17 06:21:17;;;;;;;9.95;5.25;;;;;;;;;;4997183;28;20064;-70
2024/01/17 06:23:44;;;;;;;8.43;5.75;;;;;;;;;;4995257;28;20048;-70
2024/01/17 06:26:09;;;;;;;6.95;5.45;;;;;;;;;;4980269;28;20038;-70
2024/01/17 06:28:35;;;;;;;5.20;4.18;;;;;;;;;;4997858;28;20057;-71
2024/01/17 06:31:03;;;;;;;8.43;4.38;;;;;;;;;;4996984;28;20046;-72
2024/01/17 06:33:29;;;;;;;10.13;6.75;;;;;;;;;;4997446;28;20061;-72
2024/01/17 06:35:56;;;;;;;16.08;9.35;;;;;;;;;;4996686;28;20053;-68
2024/01/17 06:38:21;;;;;;;6.72;4.13;;;;;;;;;;4995795;28;20054;-68
2024/01/17 06:40:46;;;;;;;5.38;4.05;;;;;;;;;;4979245;28;20046;-68
2024/01/17 06:43:12;;;;;;;5.95;4.35;;;;;;;;;;4996966;28;20049;-69
2024/01/17 06:45:37;;;;;;;8.20;4.72;;;;;;;;;;4992653;28;20042;-73
2024/01/17 06:48:04;;;;;;;4.68;4.03;;;;;;;;;;4994584;28;20463;-72
2024/01/17 06:50:29;;;;;;;10.13;6.60;;;;;;;;;;4995883;28;20710;-69
2024/01/17 06:52:55;;;;;;;14.50;5.97;;;;;;;;;;4995950;28;20052;-72
2024/01/17 06:55:20;;;;;;;10.35;6.10;;;;;;;;;;4997117;28;20050;-73
2024/01/17 06:57:46;;;;;;;10.65;5.80;;;;;;;;;;4979663;28;20124;-69
2024/01/17 07:00:15;;;;;;;8.45;5.13;;;;;;;;;;4994554;28;20041;-71
2024/01/17 07:02:40;;;;;;;10.18;4.38;;;;;;;;;;4994493;28;20414;-68
2024/01/17 07:05:06;;;;;;;7.53;4.53;;;;;;;;;;4996776;28;20041;-70
2024/01/17 07:07:32;;;;;;;6.70;4.82;;;;;;;;;;4995829;28;20053;-72
2024/01/17 07:09:57;;;;;;;6.70;4.70;;;;;;;;;;4995563;28;20050;-68
2024/01/17 07:12:22;;;;;;;5.25;4.05;;;;;;;;;;4994304;28;20060;-70
2024/01/17 07:14:48;;;;;;;6.57;4.82;;;;;;;;;;4978471;28;20157;-68
2024/01/17 07:17:14;;;;;;;8.10;5.30;;;;;;;;;;4995485;28;20042;-67
2024/01/17 07:19:40;;;;;;;7.65;5.63;;;;;;;;;;4996258;28;20828;-69
2024/01/17 07:22:06;;;;;;;8.50;5.40;;;;;;;;;;4995686;28;20041;-68
2024/01/17 07:24:32;;;;;;;8.20;5.10;;;;;;;;;;4997316;28;20042;-71
2024/01/17 07:26:57;;;;;;;6.80;5.05;;;;;;;;;;4995982;28;20410;-69
2024/01/17 07:29:22;;;;;;;7.57;4.55;;;;;;;;;;4979770;28;20109;-70
2024/01/17 07:31:50;;;;;;;6.70;4.40;;;;;;;;;;4994936;28;20056;-70
2024/01/17 07:34:15;;;;;;;13.40;6.28;;;;;;;;;;4993451;28;20053;-69
2024/01/17 07:36:40;;;;;;;9.27;5.55;;;;;;;;;;4995598;28;20058;-68
2024/01/17 07:39:06;;;;;;;12.20;5.45;;;;;;;;;;4978299;28;20050;-70
2024/01/17 07:41:32;;;;;;;10.75;5.78;;;;;;;;;;4994433;28;20046;-70
2024/01/17 07:43:57;;;;;;;6.65;5.07;;;;;;;;;;4979838;28;20073;-72
2024/01/17 07:46:22;;;;;;;7.55;5.50;;;;;;;;;;4994957;28;20422;-69
2024/01/17 07:48:48;;;;;;;8.25;4.68;;;;;;;;;;4976626;28;20072;-73
2024/01/17 07:51:13;;;;;;;6.28;4.82;;;;;;;;;;4994821;28;20042;-72
2024/01/17 07:53:39;;;;;;;9.38;5.93;;;;;;;;;;4994208;28;20045;-70
2024/01/17 07:56:04;;;;;;;7.70;5.38;;;;;;;;;;4994040;28;20431;-68
2024/01/17 07:58:30;;;;;;;6.53;4.75;;;;;;;;;;4995527;28;20046;-72
2024/01/17 08:00:56;;;;;;;8.73;5.65;;;;;;;;;;4994064;28;20045;-71
2024/01/17 08:03:21;;;;;;;6.85;4.90;;;;;;;;;;4993696;28;20056;-67
2024/01/17 08:05:46;;;;;;;12.35;5.22;;;;;;;;;;4993687;28;20053;-71
2024/01/17 08:08:12;;;;;;;7.65;4.60;;;;;;;;;;4993961;28;20054;-67
2024/01/17 08:10:38;;;;;;;13.18;6.07;;;;;;;;;;4993532;28;20042;-67
2024/01/17 08:13:04;;;;;;;11.23;5.68;;;;;;;;;;4992229;28;20093;-68
2024/01/17 08:15:31;;;;;;;6.38;5.40;;;;;;;;;;4994763;28;20054;-74
2024/01/17 08:17:56;;;;;;;6.57;5.13;;;;;;;;;;4979127;28;20048;-69
2024/01/17 08:20:22;;;;;;;7.88;5.15;;;;;;;;;;4993167;28;20470;-72
2024/01/17 08:22:47;;;;;;;6.95;4.95;;;;;;;;;;4993448;28;20042;-70
2024/01/17 08:25:14;;;;;;;7.43;5.05;;;;;;;;;;4993716;28;20092;-72
2024/01/17 08:27:39;;;;;;;10.18;4.55;;;;;;;;;;4995075;28;20137;-72
2024/01/17 08:30:05;;;;;;;7.88;4.25;;;;;;;;;;4992655;28;20049;-67
2024/01/17 08:32:31;;;;;;;9.60;6.05;;;;;;;;;;4995050;28;20449;-71
2024/01/17 08:34:56;;;;;;;5.05;3.38;;;;;;;;;;4994243;28;20050;-67
2024/01/17 08:37:21;;;;;;;6.35;3.47;;;;;;;;;;4994411;28;20075;-72
2024/01/17 08:39:47;;;;;;;4.80;3.55;;;;;;;;;;4979700;28;20084;-72
2024/01/17 08:42:13;;;;;;;5.68;3.75;;;;;;;;;;4993947;28;20061;-69
2024/01/17 08:44:42;;;;;;;8.27;4.28;;;;;;;;;;4994868;28;20463;-69
2024/01/17 08:47:08;;;;;;;4.85;3.47;;;;;;;;;;4993615;28;20384;-70
2024/01/17 08:49:38;;;;;;;7.47;4.00;;;;;;;;;;4996023;28;20060;-67
2024/01/17 08:52:04;;;;;;;6.50;3.35;;;;;;;;;;4992436;28;20168;-68
2024/01/17 08:54:29;;;;;;;6.57;4.07;;;;;;;;;;4990177;28;20540;-71
2024/01/17 08:56:55;;;;;;;8.82;3.70;;;;;;;;;;4991200;28;20529;-69
2024/01/17 08:59:20;;;;;;;5.82;4.05;;;;;;;;;;4993055;28;20129;-72
2024/01/17 09:01:46;;;;;;;8.00;4.38;;;;;;;;;;4992471;28;20050;-70
2024/01/17 09:04:11;;;;;;;6.22;4.13;;;;;;;;;;4992479;28;20543;-69
2024/01/17 09:06:37;;;;;;;12.88;3.92;;;;;;;;;;4993488;28;20049;-72
2024/01/17 09:09:03;;;;;;;5.97;4.20;;;;;;;;;;4991013;28;20052;-70
2024/01/17 09:11:29;;;;;;;7.35;4.57;;;;;;;;;;4994237;28;20160;-69
2024/01/17 09:13:55;;;;;;;11.82;5.10;;;;;;;;;;4990203;28;20130;-73
2024/01/17 09:16:21;;;;;;;6.15;4.35;;;;;;;;;;4975382;28;20092;-72
2024/01/17 09:18:46;;;;;;;7.15;4.85;;;;;;;;;;4993297;28;20071;-70
2024/01/17 09:21:11;;;;;;;6.20;3.78;;;;;;;;;;4990503;28;20527;-69
2024/01/17 09:23:37;;;;;;;6.13;4.13;;;;;;;;;;4992476;28;20050;-72
2024/01/17 09:26:03;;;;;;;4.50;3.92;;;;;;;;;;4991588;28;20499;-71
2024/01/17 09:28:28;;;;;;;9.32;5.50;;;;;;;;;;4991732;28;20058;-71
2024/01/17 09:30:54;;;;;;;5.88;4.65;;;;;;;;;;4975058;28;20112;-70
2024/01/17 09:33:19;;;;;;;8.57;5.82;;;;;;;;;;4976158;28;20273;-71
2024/01/17 09:35:45;;;;;;;9.82;5.53;;;;;;;;;;4995966;28;20054;-70
2024/01/17 09:38:12;;;;;;;8.07;4.78;;;;;;;;;;4996291;28;20407;-70
2024/01/17 09:40:38;;;;;;;7.35;5.07;;;;;;;;;;4996787;28;20074;-73
2024/01/17 09:43:06;;;;;;;9.23;6.40;;;;;;;;;;4979320;28;20100;-69
2024/01/17 09:45:32;;;;;;;11.52;5.03;;;;;;;;;;4996502;28;20479;-72
2024/01/17 09:47:58;;;;;;;6.28;4.50;;;;;;;;;;4995931;28;20050;-70
2024/01/17 09:50:24;;;;;;;7.95;4.75;;;;;;;;;;4978588;28;20131;-70
2024/01/17 09:52:52;;;;;;;6.75;4.97;;;;;;;;;;4982766;28;20178;-69
2024/01/17 09:55:20;;;;;;;10.68;4.68;;;;;;;;;;4981001;28;20125;-74
2024/01/17 09:57:51;;;;;;;6.10;4.60;;;;;;;;;;4996604;28;20053;-73
2024/01/17 10:00:16;;;;;;;6.38;4.60;;;;;;;;;;4994498;28;20041;-70
2024/01/17 10:02:42;;;;;;;7.35;4.45;;;;;;;;;;4978739;28;20439;-72
2024/01/17 10:05:09;;;;;;;9.60;4.28;;;;;;;;;;4996039;28;20053;-72
2024/01/17 10:07:36;;;;;;;8.73;4.65;;;;;;;;;;4980647;28;20046;-71
2024/01/17 10:10:02;;;;;;;7.88;4.75;;;;;;;;;;4996143;28;20046;-72
2024/01/17 10:12:28;;;;;;;13.50;5.10;;;;;;;;;;4980223;28;20054;-73
2024/01/17 10:14:53;;;;;;;11.20;5.20;;;;;;;;;;4995946;28;21129;-74
2024/01/17 10:17:19;;;;;;;8.35;5.25;;;;;;;;;;4995716;28;20889;-73
2024/01/17 10:19:44;;;;;;;10.05;5.40;;;;;;;;;;4996236;28;20045;-73
2024/01/17 10:22:10;;;;;;;6.18;5.18;;;;;;;;;;4995768;28;20829;-72
2024/01/17 10:24:38;;;;;;;7.22;5.57;;;;;;;;;;4995717;28;20092;-76
2024/01/17 10:27:05;;;;;;;12.10;5.20;;;;;;;;;;4996133;28;20050;-71
2024/01/17 10:29:31;;;;;;;6.30;4.50;;;;;;;;;;4995440;28;20553;-71
2024/01/17 10:32:01;;;;;;;5.97;4.72;;;;;;;;;;4996542;28;20050;-71
2024/01/17 10:34:30;;;;;;;5.70;4.10;;;;;;;;;;4994580;28;20123;-71
2024/01/17 10:36:56;;;;;;;8.55;5.63;;;;;;;;;;4995102;28;20558;-73
2024/01/17 10:39:23;;;;;;;7.22;5.03;;;;;;;;;;4994958;28;20100;-72
2024/01/17 10:41:54;;;;;;;5.72;4.82;;;;;;;;;;4996461;28;20050;-75
2024/01/17 10:44:26;;;;;;;6.03;4.93;;;;;;;;;;4994527;28;20037;-74
2024/01/17 10:46:53;;;;;;;6.47;5.05;;;;;;;;;;4996227;28;20092;-71
2024/01/17 10:49:19;;;;;;;8.43;5.40;;;;;;;;;;4992222;28;21506;-74
2024/01/17 10:52:02;;;;;;;9.20;4.90;;;;;;;;;;4992771;28;20114;-73
2024/01/17 10:54:36;;;;;;;5.40;4.15;;;;;;;;;;4994112;28;20431;-74
2024/01/17 10:57:06;;;;;;;9.75;4.45;;;;;;;;;;4995152;28;20050;-73
2024/01/17 10:59:32;;;;;;;6.75;4.68;;;;;;;;;;4994345;28;20045;-73
2024/01/17 11:01:58;;;;;;;5.47;4.05;;;;;;;;;;4995139;28;20042;-73
2024/01/17 11:04:29;;;;;;;6.43;4.50;;;;;;;;;;4994225;28;20042;-73
2024/01/17 11:06:57;;;;;;;5.78;4.35;;;;;;;;;;4995288;28;20553;-72
2024/01/17 11:09:26;;;;;;;7.30;5.00;;;;;;;;;;4992771;28;20041;-73
2024/01/17 11:11:52;;;;;;;8.32;4.93;;;;;;;;;;4978272;28;20100;-73
2024/01/17 11:14:19;;;;;;;8.00;5.03;;;;;;;;;;4993853;28;20054;-73
2024/01/17 11:16:52;;;;;;;12.40;6.13;;;;;;;;;;4974884;28;20046;-73
2024/01/17 11:19:19;;;;;;;10.75;6.70;;;;;;;;;;4994064;28;20037;-71
2024/01/17 11:21:44;;;;;;;11.70;6.63;;;;;;;;;;4994429;28;20096;-74
2024/01/17 11:24:15;;;;;;;7.85;5.63;;;;;;;;;;4978919;28;20549;-75
2024/01/17 11:26:53;;;;;;;8.13;6.13;;;;;;;;;;4995504;28;20120;-74
2024/01/17 11:29:34;;;;;;;9.65;6.32;;;;;;;;;;4993467;28;20053;-72
2024/01/17 11:32:13;;;;;;;10.10;5.75;;;;;;;;;;4976187;28;20077;-73
2024/01/17 11:34:38;;;;;;;10.30;6.90;;;;;;;;;;4996569;28;20057;-72
2024/01/17 11:37:04;;;;;;;13.98;6.20;;;;;;;;;;4979843;28;20435;-72
2024/01/17 11:39:29;;;;;;;6.38;5.25;;;;;;;;;;4995958;28;20045;-71
2024/01/17 11:41:54;;;;;;;8.73;6.18;;;;;;;;;;4996911;28;20047;-71
2024/01/17 11:44:21;;;;;;;7.95;5.43;;;;;;;;;;4995102;28;20560;-71
2024/01/17 11:46:51;;;;;;;8.05;4.47;;;;;;;;;;4995121;28;20056;-70
2024/01/17 11:49:47;;;;;;;7.97;5.30;;;;;;;;;;4977640;28;20041;-70
2024/01/17 11:52:34;;;;;;;10.18;4.97;;;;;;;;;;4992945;28;20038;-70
2024/01/17 11:55:00;;;;;;;6.72;5.38;;;;;;;;;;4993926;28;20054;-70
2024/01/17 11:57:28;;;;;;;8.48;5.35;;;;;;;;;;4993062;28;20070;-71
2024/01/17 12:00:11;;;;;;;4.97;4.30;;;;;;;;;;4994253;28;20785;-71
2024/01/17 12:02:41;;;;;;;9.63;7.15;;;;;;;;;;4956234;28;20053;-71
2024/01/17 12:05:08;;;;;;;10.70;7.70;;;;;;;;;;4973340;28;20392;-71
2024/01/17 12:07:42;;;;;;;5.75;4.25;;;;;;;;;;4975146;28;20052;-72
2024/01/17 12:10:12;;;;;;;6.07;4.93;;;;;;;;;;4973756;28;20050;-72
2024/01/17 12:12:42;;;;;;;6.10;3.92;;;;;;;;;;4973680;28;20538;-72
2024/01/17 12:15:12;;;;;;;10.20;6.03;;;;;;;;;;4973108;28;21024;-72
2024/01/17 12:17:39;;;;;;;12.05;7.25;;;;;;;;;;4972796;28;20046;-71
2024/01/17 12:20:07;;;;;;;8.38;6.75;;;;;;;;;;4971861;28;20054;-70
2024/01/17 12:22:34;;;;;;;8.40;5.30;;;;;;;;;;4972062;28;20085;-70
2024/01/17 12:24:59;;;;;;;10.60;6.20;;;;;;;;;;4992794;28;20044;-70
2024/01/17 12:27:26;;;;;;;6.68;4.38;;;;;;;;;;4991534;28;20061;-71
2024/01/17 12:29:54;;;;;;;7.75;5.53;;;;;;;;;;4992641;28;20503;-71
2024/01/17 12:32:23;;;;;;;8.52;5.93;;;;;;;;;;4991065;28;20033;-71
2024/01/17 12:34:49;;;;;;;8.68;5.53;;;;;;;;;;4993609;28;20050;-71
2024/01/17 12:37:15;;;;;;;8.20;5.47;;;;;;;;;;4992033;28;20037;-71
2024/01/17 12:39:40;;;;;;;8.15;6.07;;;;;;;;;;4993535;28;20049;-71
2024/01/17 12:42:06;;;;;;;8.05;5.85;;;;;;;;;;4992392;28;20052;-72
2024/01/17 12:44:32;;;;;;;7.60;5.72;;;;;;;;;;4958691;28;20050;-72
2024/01/17 12:46:57;;;;;;;7.25;5.32;;;;;;;;;;4992864;28;20053;-72
2024/01/17 12:49:23;;;;;;;8.98;6.88;;;;;;;;;;4991023;28;20041;-72
2024/01/17 12:51:49;;;;;;;8.75;6.18;;;;;;;;;;4995282;28;20570;-71
2024/01/17 12:54:17;;;;;;;9.07;7.10;;;;;;;;;;4992054;28;20480;-72
2024/01/17 12:56:43;;;;;;;5.80;5.20;;;;;;;;;;4994153;28;20734;-71
2024/01/17 12:59:08;;;;;;;9.43;5.32;;;;;;;;;;4994597;28;20050;-72
2024/01/17 13:01:40;;;;;;;8.20;5.68;;;;;;;;;;4992962;28;20092;-72
2024/01/17 13:04:07;;;;;;;6.55;5.47;;;;;;;;;;4987268;28;20558;-72
2024/01/17 13:06:46;;;;;;;7.10;5.55;;;;;;;;;;4992192;28;20120;-71
2024/01/17 13:09:17;;;;;;;4.85;3.72;;;;;;;;;;4993713;28;20407;-72
2024/01/17 13:11:49;;;;;;;9.88;6.40;;;;;;;;;;4973498;28;20073;-72
2024/01/17 13:14:19;;;;;;;5.97;4.70;;;;;;;;;;4996048;28;20054;-71
2024/01/17 13:16:48;;;;;;;6.50;4.78;;;;;;;;;;4996398;28;20057;-72
2024/01/17 13:19:14;;;;;;;6.78;5.25;;;;;;;;;;4997066;28;20095;-72
2024/01/17 13:21:41;;;;;;;6.20;4.93;;;;;;;;;;4997841;28;20267;-73
2024/01/17 13:24:07;;;;;;;13.40;7.13;;;;;;;;;;4997710;28;20084;-73
2024/01/17 13:26:35;;;;;;;9.20;5.82;;;;;;;;;;4997705;28;20133;-72
2024/01/17 13:29:02;;;;;;;10.48;6.68;;;;;;;;;;4998612;28;20111;-72
2024/01/17 13:31:28;;;;;;;8.48;5.95;;;;;;;;;;4998067;28;20133;-72
2024/01/17 13:33:53;;;;;;;7.80;6.18;;;;;;;;;;4998732;28;20072;-71
2024/01/17 13:36:19;;;;;;;8.77;5.53;;;;;;;;;;4997508;28;20054;-72
2024/01/17 13:38:46;;;;;;;9.88;7.13;;;;;;;;;;4999429;28;20136;-71
2024/01/17 13:41:11;;;;;;;13.30;8.65;;;;;;;;;;4998610;28;20041;-71
2024/01/17 13:43:37;;;;;;;9.85;7.20;;;;;;;;;;4997575;28;20042;-71
2024/01/17 13:46:02;;;;;;;12.75;7.22;;;;;;;;;;4982325;28;20495;-72
2024/01/17 13:48:28;;;;;;;9.02;6.53;;;;;;;;;;4997444;28;20049;-72
2024/01/17 13:50:54;;;;;;;12.15;8.68;;;;;;;;;;4983269;28;20120;-71
2024/01/17 13:53:31;;;;;;;10.77;6.63;;;;;;;;;;4997999;28;20046;-72
2024/01/17 13:55:57;;;;;;;9.07;6.22;;;;;;;;;;4997239;28;20050;-72
2024/01/17 13:58:23;;;;;;;7.65;6.07;;;;;;;;;;4997437;28;20483;-72
2024/01/17 14:00:52;;;;;;;9.82;6.15;;;;;;;;;;4998259;28;20495;-72
2024/01/17 14:03:18;;;;;;;8.82;6.35;;;;;;;;;;4997642;28;20053;-72
2024/01/17 14:05:44;;;;;;;12.80;7.10;;;;;;;;;;4998119;28;20054;-72
2024/01/17 14:08:09;;;;;;;9.57;6.28;;;;;;;;;;4998212;28;20050;-73
2024/01/17 14:10:35;;;;;;;11.32;7.03;;;;;;;;;;4997994;28;20057;-72
2024/01/17 14:13:01;;;;;;;9.32;6.13;;;;;;;;;;4998392;28;20156;-72
2024/01/17 14:15:27;;;;;;;11.57;6.78;;;;;;;;;;4997893;28;20081;-72
2024/01/17 14:17:53;;;;;;;12.25;7.25;;;;;;;;;;4998245;28;20061;-73
2024/01/17 14:20:19;;;;;;;13.20;6.75;;;;;;;;;;4996230;28;20062;-72
2024/01/17 14:22:48;;;;;;;12.75;7.88;;;;;;;;;;4997129;28;20048;-71
2024/01/17 14:25:17;;;;;;;10.32;7.25;;;;;;;;;;4997284;28;20050;-74
2024/01/17 14:27:44;;;;;;;11.80;7.75;;;;;;;;;;4997452;28;20050;-74
2024/01/17 14:30:13;;;;;;;10.80;7.13;;;;;;;;;;4996713;28;20104;-72
2024/01/17 14:32:40;;;;;;;11.02;7.05;;;;;;;;;;4996963;28;20053;-71
2024/01/17 14:35:08;;;;;;;10.63;7.63;;;;;;;;;;4998551;28;20770;-70
2024/01/17 14:37:36;;;;;;;15.55;6.40;;;;;;;;;;4997029;28;20056;-71